createdAt,value
2019-02-20T00:00:12.353Z,17.3
2019-02-20T00:01:02.619Z,17.3
2019-02-20T00:01:52.427Z,17.3
2019-02-20T00:02:42.142Z,17.3
2019-02-20T00:03:34.654Z,17.3
2019-02-20T00:04:23.361Z,17.3
2019-02-20T00:05:12.015Z,17.3
2019-02-20T00:06:02.098Z,17.2
2019-02-20T00:06:52.277Z,17.1
2019-02-20T00:07:43.110Z,17.1
2019-02-20T00:08:33.206Z,17.1
2019-02-20T00:09:23.007Z,17.1
2019-02-20T00:10:13.525Z,17.1
2019-02-20T00:14:23.837Z,16.9
2019-02-20T00:15:14.909Z,16.9
2019-02-20T00:16:04.116Z,16.9
2019-02-20T00:16:54.174Z,16.9
2019-02-20T00:17:42.570Z,16.9
2019-02-20T00:19:25.775Z,17.1
2019-02-20T00:20:14.477Z,17.1
2019-02-20T00:21:02.867Z,17.1
2019-02-20T00:21:54.056Z,17.1
2019-02-20T00:22:49.749Z,17.2
2019-02-20T00:23:34.988Z,17.2
2019-02-20T00:24:24.757Z,17.3
2019-02-20T00:25:14.029Z,17.3
2019-02-20T00:26:04.883Z,17.3
2019-02-20T00:26:55.703Z,17.3
2019-02-20T00:27:44.916Z,17.3
2019-02-20T00:28:35.355Z,17.3
2019-02-20T00:29:25.696Z,17.2
2019-02-20T00:30:14.841Z,17.3
2019-02-20T00:31:05.371Z,17.3
2019-02-20T00:31:54.274Z,17.3
2019-02-20T00:32:44.083Z,17.3
2019-02-20T00:33:35.521Z,17.2
2019-02-20T00:34:25.434Z,17.2
2019-02-20T00:35:14.373Z,17.2
2019-02-20T00:36:06.090Z,17.1
2019-02-20T00:36:54.841Z,17.1
2019-02-20T00:39:25.766Z,16.9
2019-02-20T00:40:15.783Z,16.9
2019-02-20T00:41:05.422Z,16.9
2019-02-20T00:41:55.175Z,16.9
2019-02-20T00:42:46.105Z,16.8
2019-02-20T00:43:35.785Z,16.8
2019-02-20T00:44:25.450Z,16.8
2019-02-20T00:45:15.445Z,16.8
2019-02-20T00:46:06.558Z,16.8
2019-02-20T00:46:55.998Z,16.8
2019-02-20T00:47:46.624Z,16.8
2019-02-20T00:48:36.742Z,16.9
2019-02-20T00:49:26.275Z,16.9
2019-02-20T00:51:06.034Z,17.1
2019-02-20T00:51:56.068Z,17.1
2019-02-20T00:52:55.927Z,17.1
2019-02-20T00:53:36.519Z,17.3
2019-02-20T00:54:26.613Z,17.3
2019-02-20T00:55:16.796Z,17.3
2019-02-20T00:56:06.459Z,17.3
2019-02-20T00:56:57.090Z,17.3
2019-02-20T00:57:46.490Z,17.3
2019-02-20T00:58:37.717Z,17.3
2019-02-20T00:59:27.517Z,17.3
2019-02-20T01:00:17.369Z,17.3
2019-02-20T01:01:07.170Z,17.3
2019-02-20T01:01:57.619Z,17.3
2019-02-20T01:02:46.654Z,17.3
2019-02-20T01:03:38.057Z,17.2
2019-02-20T01:04:27.202Z,17.2
2019-02-20T01:05:17.027Z,17.1
2019-02-20T01:06:09.582Z,17.1
2019-02-20T01:06:57.738Z,17.1
2019-02-20T01:09:27.492Z,16.9
2019-02-20T01:10:18.096Z,16.9
2019-02-20T01:11:08.468Z,16.9
2019-02-20T01:11:57.009Z,16.9
2019-02-20T01:12:46.998Z,16.8
2019-02-20T01:13:37.161Z,16.8
2019-02-20T01:14:27.206Z,16.8
2019-02-20T01:15:17.584Z,16.8
2019-02-20T01:16:07.641Z,16.8
2019-02-20T01:16:58.131Z,16.8
2019-02-20T01:17:48.220Z,16.9
2019-02-20T01:18:37.978Z,16.9
2019-02-20T01:19:28.298Z,16.9
2019-02-20T01:21:58.261Z,17.1
2019-02-20T01:22:48.302Z,17.1
2019-02-20T01:23:38.074Z,17.2
2019-02-20T01:24:29.275Z,17.2
2019-02-20T01:25:18.172Z,17.3
2019-02-20T01:26:08.808Z,17.2
2019-02-20T01:26:59.114Z,17.2
2019-02-20T01:27:49.190Z,17.2
2019-02-20T01:28:38.738Z,17.2
2019-02-20T01:29:28.534Z,17.2
2019-02-20T01:30:18.260Z,17.3
2019-02-20T01:31:09.718Z,17.2
2019-02-20T01:32:00.093Z,17.2
2019-02-20T01:32:48.821Z,17.1
2019-02-20T01:33:39.016Z,17.1
2019-02-20T01:34:29.010Z,17.1
2019-02-20T01:35:20.041Z,17.1
2019-02-20T01:36:09.722Z,17.1
2019-02-20T01:37:49.635Z,16.9
2019-02-20T01:38:39.374Z,16.9
2019-02-20T01:39:30.519Z,16.9
2019-02-20T01:40:20.322Z,16.8
2019-02-20T01:41:09.531Z,16.8
2019-02-20T01:41:59.149Z,16.8
2019-02-20T01:42:50.259Z,16.8
2019-02-20T01:43:39.810Z,16.8
2019-02-20T01:44:30.134Z,16.8
2019-02-20T01:45:20.612Z,16.7
2019-02-20T01:46:10.009Z,16.8
2019-02-20T01:47:01.182Z,16.8
2019-02-20T01:47:49.864Z,16.8
2019-02-20T01:48:40.141Z,16.8
2019-02-20T01:49:29.832Z,16.9
2019-02-20T01:50:19.689Z,16.9
2019-02-20T01:51:10.666Z,16.9
2019-02-20T01:52:00.980Z,16.9
2019-02-20T01:52:50.692Z,16.9
2019-02-20T01:53:39.926Z,16.9
2019-02-20T01:54:30.863Z,16.9
2019-02-20T01:55:21.957Z,16.9
2019-02-20T01:56:10.871Z,16.9
2019-02-20T01:57:02.619Z,16.9
2019-02-20T01:57:51.368Z,16.8
2019-02-20T01:58:40.861Z,16.8
2019-02-20T01:59:31.477Z,16.8
2019-02-20T02:00:21.220Z,16.8
2019-02-20T02:01:11.481Z,16.8
2019-02-20T02:02:01.041Z,16.8
2019-02-20T02:02:50.554Z,16.8
2019-02-20T02:03:43.416Z,16.8
2019-02-20T02:04:31.803Z,16.9
2019-02-20T02:05:24.875Z,16.9
2019-02-20T02:06:11.945Z,16.9
2019-02-20T02:10:21.623Z,17.1
2019-02-20T02:11:13.001Z,17.1
2019-02-20T02:12:01.758Z,17.2
2019-02-20T02:12:51.288Z,17.3
2019-02-20T02:13:42.362Z,17.3
2019-02-20T02:14:31.954Z,17.3
2019-02-20T02:15:29.145Z,17.2
2019-02-20T02:16:12.363Z,17.2
2019-02-20T02:17:01.365Z,17.1
2019-02-20T02:17:52.441Z,17.1
2019-02-20T02:18:43.263Z,17.1
2019-02-20T02:19:32.618Z,17.1
2019-02-20T02:21:12.079Z,16.9
2019-02-20T02:22:03.255Z,16.9
2019-02-20T02:22:52.250Z,16.8
2019-02-20T02:23:43.132Z,16.8
2019-02-20T02:24:32.654Z,16.8
2019-02-20T02:25:23.467Z,16.7
2019-02-20T02:26:18.959Z,16.6
2019-02-20T02:27:02.624Z,16.6
2019-02-20T02:27:52.931Z,16.6
2019-02-20T02:28:42.481Z,16.6
2019-02-20T02:29:34.349Z,16.6
2019-02-20T02:30:24.148Z,16.6
2019-02-20T02:31:13.913Z,16.7
2019-02-20T02:32:03.096Z,16.7
2019-02-20T02:32:53.811Z,16.8
2019-02-20T02:33:43.304Z,16.8
2019-02-20T02:34:33.136Z,16.8
2019-02-20T02:35:24.049Z,16.8
2019-02-20T02:36:13.827Z,16.9
2019-02-20T02:37:04.698Z,16.9
2019-02-20T02:38:43.989Z,17.1
2019-02-20T02:39:34.252Z,17.1
2019-02-20T02:40:24.911Z,17.1
2019-02-20T02:41:14.156Z,17.2
2019-02-20T02:42:04.716Z,17.2
2019-02-20T02:42:55.136Z,17.2
2019-02-20T02:43:44.580Z,17.2
2019-02-20T02:44:34.621Z,17.1
2019-02-20T02:45:25.398Z,17.1
2019-02-20T02:46:14.191Z,17.1
2019-02-20T02:47:04.953Z,17.1
2019-02-20T02:49:34.425Z,16.9
2019-02-20T02:50:24.303Z,16.9
2019-02-20T02:51:15.361Z,16.9
2019-02-20T02:52:06.036Z,16.9
2019-02-20T02:52:54.491Z,16.8
2019-02-20T02:53:44.721Z,16.8
2019-02-20T02:54:34.533Z,16.8
2019-02-20T02:55:24.962Z,16.8
2019-02-20T02:56:14.893Z,16.7
2019-02-20T02:57:05.231Z,16.7
2019-02-20T02:57:54.215Z,16.7
2019-02-20T02:58:45.708Z,16.7
2019-02-20T02:59:35.428Z,16.6
2019-02-20T03:00:25.880Z,16.6
2019-02-20T03:01:14.986Z,16.6
2019-02-20T03:02:05.415Z,16.7
2019-02-20T03:02:55.000Z,16.7
2019-02-20T03:03:45.936Z,16.8
2019-02-20T03:04:36.780Z,16.8
2019-02-20T03:08:06.878Z,16.9
2019-02-20T03:09:47.738Z,17.1
2019-02-20T03:10:37.815Z,17.1
2019-02-20T03:11:28.612Z,17.1
2019-02-20T03:12:18.484Z,17.1
2019-02-20T03:13:08.997Z,17.1
2019-02-20T03:13:58.385Z,17.1
2019-02-20T03:14:48.633Z,17.1
2019-02-20T03:15:38.539Z,17.1
2019-02-20T03:16:28.203Z,17.1
2019-02-20T03:17:18.782Z,17.1
2019-02-20T03:18:08.155Z,17.1
2019-02-20T03:21:28.477Z,16.9
2019-02-20T03:22:18.599Z,16.9
2019-02-20T03:23:09.372Z,16.9
2019-02-20T03:23:59.310Z,16.8
2019-02-20T03:24:49.991Z,16.8
2019-02-20T03:25:39.255Z,16.8
2019-02-20T03:26:28.138Z,16.8
2019-02-20T03:27:19.681Z,16.7
2019-02-20T03:28:08.599Z,16.7
2019-02-20T03:28:57.846Z,16.6
2019-02-20T03:29:47.704Z,16.6
2019-02-20T03:30:38.775Z,16.6
2019-02-20T03:31:28.416Z,16.5
2019-02-20T03:32:19.662Z,16.6
2019-02-20T03:33:09.337Z,16.5
2019-02-20T03:34:00.202Z,16.5
2019-02-20T03:34:49.620Z,16.6
2019-02-20T03:35:38.366Z,16.6
2019-02-20T03:36:29.571Z,16.6
2019-02-20T03:37:20.633Z,16.6
2019-02-20T03:38:10.355Z,16.6
2019-02-20T03:39:00.199Z,16.7
2019-02-20T03:39:50.456Z,16.8
2019-02-20T03:40:40.280Z,16.8
2019-02-20T03:41:30.433Z,16.8
2019-02-20T03:42:21.211Z,16.9
2019-02-20T03:51:31.087Z,16.9
2019-02-20T03:52:21.197Z,16.9
2019-02-20T03:53:10.374Z,16.9
2019-02-20T03:54:00.847Z,16.9
2019-02-20T03:54:51.254Z,16.8
2019-02-20T03:55:41.449Z,16.8
2019-02-20T03:56:31.097Z,16.8
2019-02-20T03:57:21.281Z,16.8
2019-02-20T03:58:12.061Z,16.7
2019-02-20T03:59:01.029Z,16.7
2019-02-20T03:59:50.792Z,16.6
2019-02-20T04:00:41.153Z,16.6
2019-02-20T04:01:31.502Z,16.6
2019-02-20T04:02:21.062Z,16.5
2019-02-20T04:03:12.429Z,16.5
2019-02-20T04:04:01.061Z,16.5
2019-02-20T04:04:51.975Z,16.5
2019-02-20T04:05:41.397Z,16.5
2019-02-20T04:06:32.322Z,16.5
2019-02-20T04:07:22.161Z,16.6
2019-02-20T04:08:11.934Z,16.6
2019-02-20T04:09:02.876Z,16.8
2019-02-20T04:09:51.956Z,16.8
2019-02-20T04:10:41.571Z,16.8
2019-02-20T04:11:33.016Z,16.8
2019-02-20T04:12:22.214Z,16.9
2019-02-20T04:13:12.584Z,16.9
2019-02-20T04:14:01.715Z,16.9
2019-02-20T04:14:52.218Z,16.9
2019-02-20T04:15:42.621Z,16.9
2019-02-20T04:16:32.498Z,16.9
2019-02-20T04:17:22.036Z,16.8
2019-02-20T04:18:15.009Z,16.8
2019-02-20T04:19:03.048Z,16.8
2019-02-20T04:19:52.982Z,16.8
2019-02-20T04:20:43.794Z,16.8
2019-02-20T04:21:32.963Z,16.8
2019-02-20T04:22:22.715Z,16.7
2019-02-20T04:23:12.669Z,16.6
2019-02-20T04:24:12.603Z,16.6
2019-02-20T04:24:52.533Z,16.6
2019-02-20T04:25:43.219Z,16.6
2019-02-20T04:26:32.638Z,16.7
2019-02-20T04:27:21.688Z,16.7
2019-02-20T04:28:13.311Z,16.7
2019-02-20T04:29:02.930Z,16.7
2019-02-20T04:29:52.965Z,16.8
2019-02-20T04:30:44.026Z,16.8
2019-02-20T04:31:32.260Z,16.8
2019-02-20T04:32:23.238Z,16.8
2019-02-20T04:33:13.813Z,16.8
2019-02-20T04:34:04.396Z,16.8
2019-02-20T04:34:54.054Z,16.9
2019-02-20T04:35:43.830Z,16.9
2019-02-20T04:36:34.197Z,16.9
2019-02-20T04:37:24.315Z,16.9
2019-02-20T04:38:13.826Z,16.9
2019-02-20T04:39:04.018Z,16.9
2019-02-20T04:39:53.853Z,16.9
2019-02-20T04:40:43.640Z,16.9
2019-02-20T04:41:34.141Z,16.9
2019-02-20T04:42:24.008Z,16.8
2019-02-20T04:43:14.365Z,16.8
2019-02-20T04:44:04.998Z,16.8
2019-02-20T04:44:54.492Z,16.8
2019-02-20T04:45:43.988Z,16.8
2019-02-20T04:46:34.582Z,16.7
2019-02-20T04:47:24.668Z,16.6
2019-02-20T04:48:15.055Z,16.6
2019-02-20T04:49:05.108Z,16.6
2019-02-20T04:49:54.815Z,16.6
2019-02-20T04:50:45.432Z,16.5
2019-02-20T04:51:33.771Z,16.5
2019-02-20T04:52:25.939Z,16.5
2019-02-20T04:53:14.854Z,16.5
2019-02-20T04:54:16.389Z,16.5
2019-02-20T04:54:55.791Z,16.5
2019-02-20T04:55:46.137Z,16.6
2019-02-20T04:56:36.206Z,16.6
2019-02-20T04:57:25.429Z,16.6
2019-02-20T04:58:15.156Z,16.6
2019-02-20T04:59:04.901Z,16.7
2019-02-20T04:59:55.871Z,16.8
2019-02-20T05:00:46.578Z,16.8
2019-02-20T05:01:35.821Z,16.8
2019-02-20T05:02:24.972Z,16.9
2019-02-20T05:03:15.837Z,16.9
2019-02-20T05:04:05.993Z,16.9
2019-02-20T05:04:56.030Z,16.9
2019-02-20T05:05:46.196Z,16.9
2019-02-20T05:06:35.770Z,16.9
2019-02-20T05:07:26.438Z,16.9
2019-02-20T05:09:56.909Z,16.9
2019-02-20T05:10:45.971Z,16.9
2019-02-20T05:11:36.179Z,16.9
2019-02-20T05:12:26.511Z,16.8
2019-02-20T05:13:15.588Z,16.8
2019-02-20T05:14:06.213Z,16.8
2019-02-20T05:14:56.627Z,16.8
2019-02-20T05:15:46.697Z,16.7
2019-02-20T05:16:37.512Z,16.7
2019-02-20T05:17:26.505Z,16.7
2019-02-20T05:18:16.902Z,16.6
2019-02-20T05:19:07.220Z,16.6
2019-02-20T05:19:56.755Z,16.6
2019-02-20T05:20:47.120Z,16.5
2019-02-20T05:21:37.191Z,16.5
2019-02-20T05:22:27.208Z,16.5
2019-02-20T05:23:16.282Z,16.4
2019-02-20T05:24:06.595Z,16.4
2019-02-20T05:24:56.797Z,16.4
2019-02-20T05:25:47.684Z,16.4
2019-02-20T05:26:37.453Z,16.4
2019-02-20T05:27:27.455Z,16.4
2019-02-20T05:28:16.581Z,16.5
2019-02-20T05:29:07.803Z,16.5
2019-02-20T05:29:57.456Z,16.5
2019-02-20T05:30:47.377Z,16.5
2019-02-20T05:31:37.217Z,16.5
2019-02-20T05:32:26.560Z,16.5
2019-02-20T05:33:17.891Z,16.4
2019-02-20T05:34:08.015Z,16.4
2019-02-20T05:34:57.387Z,16.4
2019-02-20T05:35:48.505Z,16.4
2019-02-20T05:36:38.096Z,16.4
2019-02-20T05:37:27.647Z,16.4
2019-02-20T05:38:16.890Z,16.4
2019-02-20T05:39:08.034Z,16.3
2019-02-20T05:39:58.672Z,16.3
2019-02-20T05:40:47.750Z,16.3
2019-02-20T05:41:38.221Z,16.2
2019-02-20T05:42:28.521Z,16.2
2019-02-20T05:43:18.187Z,16.1
2019-02-20T05:44:07.419Z,16.1
2019-02-20T05:44:58.513Z,16.1
2019-02-20T05:45:48.219Z,16.1
2019-02-20T05:46:37.495Z,16.1
2019-02-20T05:47:29.015Z,16.1
2019-02-20T05:48:18.191Z,16.1
2019-02-20T05:49:09.073Z,16.1
2019-02-20T05:49:58.371Z,16.1
2019-02-20T05:50:48.862Z,16.1
2019-02-20T05:51:38.958Z,16.1
2019-02-20T05:52:28.807Z,16.2
2019-02-20T05:53:18.304Z,16.2
2019-02-20T05:54:08.879Z,16.2
2019-02-20T05:54:59.129Z,16.2
2019-02-20T05:55:48.638Z,16.3
2019-02-20T05:56:38.774Z,16.3
2019-02-20T05:57:29.172Z,16.3
2019-02-20T05:58:18.834Z,16.3
2019-02-20T05:59:09.488Z,16.3
2019-02-20T05:59:59.573Z,16.3
2019-02-20T06:00:49.921Z,16.3
2019-02-20T06:01:39.065Z,16.3
2019-02-20T06:02:30.058Z,16.3
2019-02-20T06:03:18.940Z,16.2
2019-02-20T06:06:07.414Z,16.1
2019-02-20T06:06:57.927Z,16
2019-02-20T06:07:47.481Z,16
2019-02-20T06:08:37.598Z,15.9
2019-02-20T06:09:30.060Z,15.9
2019-02-20T06:10:17.644Z,15.9
2019-02-20T06:11:19.825Z,15.8
2019-02-20T06:11:58.332Z,15.8
2019-02-20T06:12:47.560Z,15.7
2019-02-20T06:13:38.181Z,15.6
2019-02-20T06:14:27.397Z,15.6
2019-02-20T06:15:17.867Z,15.6
2019-02-20T06:16:08.530Z,15.5
2019-02-20T06:16:57.685Z,15.5
2019-02-20T06:17:47.879Z,15.4
2019-02-20T06:18:38.130Z,15.4
2019-02-20T06:19:28.738Z,15.4
2019-02-20T06:20:18.580Z,15.3
2019-02-20T06:21:09.447Z,15.3
2019-02-20T06:21:58.057Z,15.3
2019-02-20T06:22:48.407Z,15.2
2019-02-20T06:23:39.309Z,15.2
2019-02-20T06:24:29.054Z,15.1
2019-02-20T06:25:20.061Z,15.1
2019-02-20T06:26:10.195Z,15.1
2019-02-20T06:26:58.806Z,15
2019-02-20T06:27:50.238Z,14.9
2019-02-20T06:28:39.086Z,14.9
2019-02-20T06:29:29.014Z,14.9
2019-02-20T06:30:19.741Z,14.8
2019-02-20T06:31:10.121Z,14.8
2019-02-20T06:31:59.043Z,14.8
2019-02-20T06:32:49.021Z,14.8
2019-02-20T06:33:40.246Z,14.8
2019-02-20T06:34:29.773Z,14.7
2019-02-20T06:35:19.808Z,14.6
2019-02-20T06:36:09.901Z,14.6
2019-02-20T06:36:58.919Z,14.6
2019-02-20T06:37:49.167Z,14.6
2019-02-20T06:38:40.425Z,14.5
2019-02-20T06:39:30.679Z,14.5
2019-02-20T06:40:20.262Z,14.4
2019-02-20T06:41:10.068Z,14.4
2019-02-20T06:41:59.637Z,14.4
2019-02-20T06:42:50.114Z,14.4
2019-02-20T06:43:39.880Z,14.3
2019-02-20T06:44:29.874Z,14.3
2019-02-20T06:45:18.873Z,14.3
2019-02-20T06:46:10.290Z,14.3
2019-02-20T06:47:00.630Z,14.2
2019-02-20T06:47:50.458Z,14.2
2019-02-20T06:48:40.440Z,14.2
2019-02-20T06:49:30.429Z,14.1
2019-02-20T06:50:20.298Z,14.1
2019-02-20T06:51:10.585Z,14.1
2019-02-20T06:51:59.810Z,14.1
2019-02-20T06:52:51.056Z,14
2019-02-20T06:53:41.247Z,14
2019-02-20T06:54:31.125Z,13.9
2019-02-20T06:55:20.941Z,13.9
2019-02-20T06:56:10.839Z,13.9
2019-02-20T06:57:01.376Z,13.9
2019-02-20T06:57:50.862Z,13.9
2019-02-20T06:58:41.346Z,13.9
2019-02-20T06:59:30.987Z,13.8
2019-02-20T07:00:21.932Z,13.8
2019-02-20T07:01:11.692Z,13.8
2019-02-20T07:02:01.050Z,13.8
2019-02-20T07:02:51.772Z,13.7
2019-02-20T07:03:40.093Z,13.7
2019-02-20T07:06:06.694Z,13.6
2019-02-20T07:06:57.294Z,13.6
2019-02-20T07:07:47.529Z,13.6
2019-02-20T07:08:36.794Z,13.6
2019-02-20T07:09:28.350Z,13.5
2019-02-20T07:10:17.192Z,13.5
2019-02-20T07:11:06.987Z,13.5
2019-02-20T07:11:57.797Z,13.4
2019-02-20T07:12:48.526Z,13.4
2019-02-20T07:13:37.671Z,13.4
2019-02-20T07:14:29.172Z,13.4
2019-02-20T07:15:17.298Z,13.3
2019-02-20T07:16:06.731Z,13.3
2019-02-20T07:16:57.169Z,13.3
2019-02-20T07:17:48.474Z,13.3
2019-02-20T07:18:38.372Z,13.3
2019-02-20T07:19:28.117Z,13.3
2019-02-20T07:20:18.636Z,13.3
2019-02-20T07:21:07.605Z,13.3
2019-02-20T07:21:58.005Z,13.2
2019-02-20T07:22:48.006Z,13.2
2019-02-20T07:23:39.426Z,13.1
2019-02-20T07:24:29.153Z,13.2
2019-02-20T07:25:18.549Z,13.1
2019-02-20T07:26:08.785Z,13.1
2019-02-20T07:26:57.833Z,13.1
2019-02-20T07:27:50.851Z,13.1
2019-02-20T07:28:39.013Z,13.1
2019-02-20T07:29:28.885Z,13.1
2019-02-20T07:30:19.440Z,13
2019-02-20T07:31:10.111Z,13
2019-02-20T07:31:59.496Z,13
2019-02-20T07:32:49.233Z,13
2019-02-20T07:33:40.531Z,12.9
2019-02-20T07:34:29.548Z,12.9
2019-02-20T07:35:19.050Z,12.9
2019-02-20T07:36:09.387Z,12.9
2019-02-20T07:36:59.986Z,12.9
2019-02-20T07:37:50.200Z,12.9
2019-02-20T07:38:39.660Z,12.9
2019-02-20T07:39:30.021Z,12.8
2019-02-20T07:40:19.518Z,12.8
2019-02-20T07:41:10.155Z,12.8
2019-02-20T07:42:00.298Z,12.8
2019-02-20T07:42:50.795Z,12.8
2019-02-20T07:43:39.580Z,12.8
2019-02-20T07:44:30.988Z,12.8
2019-02-20T07:45:19.867Z,12.8
2019-02-20T07:46:10.873Z,12.7
2019-02-20T07:47:00.400Z,12.7
2019-02-20T07:47:50.357Z,12.7
2019-02-20T07:48:41.167Z,12.7
2019-02-20T07:49:31.309Z,12.7
2019-02-20T07:50:20.882Z,12.7
2019-02-20T07:51:10.548Z,12.7
2019-02-20T07:52:01.230Z,12.6
2019-02-20T07:52:50.655Z,12.6
2019-02-20T07:53:41.581Z,12.6
2019-02-20T07:54:30.469Z,12.6
2019-02-20T07:55:23.717Z,12.6
2019-02-20T07:56:10.922Z,12.6
2019-02-20T07:57:00.734Z,12.6
2019-02-20T07:57:52.251Z,12.6
2019-02-20T07:58:41.466Z,12.5
2019-02-20T07:59:30.720Z,12.5
2019-02-20T08:00:22.207Z,12.5
2019-02-20T08:01:11.257Z,12.5
2019-02-20T08:02:01.674Z,12.5
2019-02-20T08:02:51.391Z,12.4
2019-02-20T08:03:41.731Z,12.5
2019-02-20T08:04:31.216Z,12.4
2019-02-20T08:05:21.806Z,12.4
2019-02-20T08:06:12.844Z,12.4
2019-02-20T08:07:02.300Z,12.4
2019-02-20T08:07:50.413Z,12.4
2019-02-20T08:08:39.933Z,12.4
2019-02-20T08:09:31.293Z,12.4
2019-02-20T08:10:21.518Z,12.4
2019-02-20T08:11:11.826Z,12.4
2019-02-20T08:12:01.813Z,12.4
2019-02-20T08:12:52.353Z,12.4
2019-02-20T08:13:48.816Z,12.4
2019-02-20T08:14:32.536Z,12.3
2019-02-20T08:15:22.395Z,12.3
2019-02-20T08:16:13.284Z,12.3
2019-02-20T08:17:02.371Z,12.3
2019-02-20T08:17:53.234Z,12.3
2019-02-20T08:18:42.771Z,12.3
2019-02-20T08:19:31.668Z,12.3
2019-02-20T08:20:22.065Z,12.3
2019-02-20T08:21:13.272Z,12.3
2019-02-20T08:22:03.109Z,12.3
2019-02-20T08:22:53.380Z,12.3
2019-02-20T08:23:43.767Z,12.3
2019-02-20T08:24:33.244Z,12.3
2019-02-20T08:25:32.276Z,12.3
2019-02-20T08:26:12.778Z,12.3
2019-02-20T08:27:03.336Z,12.3
2019-02-20T08:27:53.163Z,12.2
2019-02-20T08:28:43.505Z,12.2
2019-02-20T08:29:33.268Z,12.2
2019-02-20T08:30:23.066Z,12.2
2019-02-20T08:31:13.889Z,12.3
2019-02-20T08:32:04.385Z,12.2
2019-02-20T08:32:53.159Z,12.2
2019-02-20T08:33:44.200Z,12.2
2019-02-20T08:34:33.146Z,12.1
2019-02-20T08:35:23.414Z,12.2
2019-02-20T08:36:13.697Z,12.2
2019-02-20T08:37:03.196Z,12.1
2019-02-20T08:37:54.667Z,12.1
2019-02-20T08:38:44.385Z,12.1
2019-02-20T08:39:33.971Z,12.1
2019-02-20T08:40:23.748Z,12.1
2019-02-20T08:41:14.290Z,12.1
2019-02-20T08:42:04.375Z,12.1
2019-02-20T08:42:54.183Z,12.1
2019-02-20T08:43:44.480Z,12.1
2019-02-20T08:44:34.823Z,12.1
2019-02-20T08:45:24.058Z,12.1
2019-02-20T08:46:14.747Z,12.1
2019-02-20T08:47:05.003Z,12.1
2019-02-20T08:47:54.342Z,12.1
2019-02-20T08:48:44.348Z,12.1
2019-02-20T08:49:34.399Z,12.1
2019-02-20T08:50:26.682Z,12.1
2019-02-20T08:51:14.575Z,12
2019-02-20T08:52:05.092Z,12.1
2019-02-20T08:52:55.432Z,12
2019-02-20T08:53:44.927Z,12.1
2019-02-20T08:54:35.397Z,12
2019-02-20T08:55:36.547Z,12
2019-02-20T08:56:15.379Z,12
2019-02-20T08:57:05.567Z,12
2019-02-20T08:57:55.888Z,12
2019-02-20T08:58:44.404Z,12
2019-02-20T08:59:35.469Z,12
2019-02-20T09:00:27.972Z,12
2019-02-20T09:01:15.172Z,12
2019-02-20T09:02:04.824Z,12
2019-02-20T09:02:56.109Z,11.9
2019-02-20T09:03:45.704Z,11.9
2019-02-20T09:04:35.475Z,11.9
2019-02-20T09:05:26.329Z,11.9
2019-02-20T09:06:15.837Z,11.9
2019-02-20T09:07:05.902Z,11.9
2019-02-20T09:07:56.224Z,11.9
2019-02-20T09:08:46.314Z,11.9
2019-02-20T09:09:36.388Z,11.9
2019-02-20T09:10:27.469Z,11.9
2019-02-20T09:11:16.456Z,11.9
2019-02-20T09:12:06.291Z,11.9
2019-02-20T09:12:57.077Z,11.9
2019-02-20T09:13:46.227Z,11.9
2019-02-20T09:14:36.806Z,11.9
2019-02-20T09:15:25.703Z,11.9
2019-02-20T09:16:16.561Z,11.9
2019-02-20T09:17:06.858Z,11.9
2019-02-20T09:17:57.196Z,11.9
2019-02-20T09:18:46.360Z,11.9
2019-02-20T09:19:36.840Z,11.9
2019-02-20T09:20:26.881Z,11.9
2019-02-20T09:21:16.933Z,11.9
2019-02-20T09:22:07.381Z,11.9
2019-02-20T09:22:56.604Z,11.9
2019-02-20T09:23:49.313Z,11.9
2019-02-20T09:24:37.886Z,11.9
2019-02-20T09:25:28.488Z,11.9
2019-02-20T09:26:16.964Z,11.9
2019-02-20T09:27:07.613Z,11.9
2019-02-20T09:27:57.385Z,11.9
2019-02-20T09:28:46.957Z,11.9
2019-02-20T09:29:37.245Z,11.9
2019-02-20T09:30:37.775Z,11.9
2019-02-20T09:31:17.347Z,11.9
2019-02-20T09:32:07.740Z,11.9
2019-02-20T09:32:57.878Z,11.9
2019-02-20T09:33:47.335Z,11.9
2019-02-20T09:34:37.315Z,11.9
2019-02-20T09:35:27.322Z,11.9
2019-02-20T09:36:18.185Z,11.9
2019-02-20T09:37:08.792Z,11.9
2019-02-20T09:37:57.814Z,11.9
2019-02-20T09:38:49.126Z,11.9
2019-02-20T09:39:38.745Z,11.9
2019-02-20T09:40:28.195Z,11.9
2019-02-20T09:41:17.799Z,11.9
2019-02-20T09:42:08.627Z,11.8
2019-02-20T09:42:58.192Z,11.8
2019-02-20T09:43:48.129Z,11.8
2019-02-20T09:44:38.239Z,11.8
2019-02-20T09:45:29.094Z,11.8
2019-02-20T09:46:18.837Z,11.8
2019-02-20T09:47:08.946Z,11.8
2019-02-20T09:47:58.984Z,11.8
2019-02-20T09:48:48.506Z,11.8
2019-02-20T09:49:39.231Z,11.8
2019-02-20T09:50:29.790Z,11.8
2019-02-20T09:51:18.686Z,11.8
2019-02-20T09:52:08.729Z,11.8
2019-02-20T09:53:01.748Z,11.8
2019-02-20T09:53:50.182Z,11.8
2019-02-20T09:54:39.444Z,11.8
2019-02-20T09:55:29.288Z,11.8
2019-02-20T09:56:22.715Z,11.8
2019-02-20T09:57:09.183Z,11.8
2019-02-20T09:58:00.250Z,11.8
2019-02-20T09:58:49.526Z,11.8
2019-02-20T09:59:39.473Z,11.8
2019-02-20T10:00:30.093Z,11.8
2019-02-20T10:01:19.993Z,11.8
2019-02-20T10:02:09.732Z,11.8
2019-02-20T10:03:00.270Z,11.8
2019-02-20T10:03:49.917Z,11.8
2019-02-20T10:04:39.923Z,11.8
2019-02-20T10:07:07.833Z,11.8
2019-02-20T10:07:57.820Z,11.8
2019-02-20T10:08:47.225Z,11.8
2019-02-20T10:09:40.135Z,11.8
2019-02-20T10:10:27.527Z,11.8
2019-02-20T10:11:18.142Z,11.8
2019-02-20T10:12:08.235Z,11.8
2019-02-20T10:12:57.960Z,11.8
2019-02-20T10:13:48.402Z,11.8
2019-02-20T10:14:38.097Z,11.8
2019-02-20T10:15:27.920Z,11.8
2019-02-20T10:16:18.457Z,11.8
2019-02-20T10:17:08.906Z,11.8
2019-02-20T10:17:58.618Z,11.8
2019-02-20T10:18:47.487Z,11.8
2019-02-20T10:19:37.927Z,11.8
2019-02-20T10:20:28.719Z,11.8
2019-02-20T10:21:19.593Z,11.8
2019-02-20T10:22:08.017Z,11.8
2019-02-20T10:22:58.877Z,11.8
2019-02-20T10:23:50.574Z,11.8
2019-02-20T10:24:38.751Z,11.8
2019-02-20T10:25:29.197Z,11.8
2019-02-20T10:26:18.336Z,11.8
2019-02-20T10:27:10.889Z,11.8
2019-02-20T10:27:58.727Z,11.8
2019-02-20T10:28:48.755Z,11.8
2019-02-20T10:29:38.822Z,11.8
2019-02-20T10:30:30.041Z,11.8
2019-02-20T10:31:18.094Z,11.8
2019-02-20T10:32:09.306Z,11.8
2019-02-20T10:32:59.643Z,11.8
2019-02-20T10:33:49.695Z,11.8
2019-02-20T10:34:39.392Z,11.8
2019-02-20T10:35:29.230Z,11.8
2019-02-20T10:36:18.456Z,11.8
2019-02-20T10:37:09.531Z,11.8
2019-02-20T10:38:02.305Z,11.8
2019-02-20T10:38:50.290Z,11.8
2019-02-20T10:39:40.341Z,11.8
2019-02-20T10:40:30.146Z,11.8
2019-02-20T10:41:19.108Z,11.8
2019-02-20T10:42:10.413Z,11.8
2019-02-20T10:43:00.405Z,11.8
2019-02-20T10:43:50.082Z,11.8
2019-02-20T10:44:39.598Z,11.8
2019-02-20T10:45:29.936Z,11.8
2019-02-20T10:46:19.151Z,11.8
2019-02-20T10:47:09.247Z,11.8
2019-02-20T10:47:59.801Z,11.8
2019-02-20T10:48:49.908Z,11.8
2019-02-20T10:49:40.538Z,11.8
2019-02-20T10:50:30.268Z,11.8
2019-02-20T10:51:20.673Z,11.8
2019-02-20T10:52:11.205Z,11.8
2019-02-20T10:53:00.978Z,11.8
2019-02-20T10:53:50.245Z,11.8
2019-02-20T10:54:41.136Z,11.8
2019-02-20T10:55:30.876Z,11.8
2019-02-20T10:56:20.928Z,11.8
2019-02-20T10:57:11.075Z,11.8
2019-02-20T10:58:00.790Z,11.8
2019-02-20T10:58:51.963Z,11.8
2019-02-20T10:59:40.662Z,11.8
2019-02-20T11:00:32.852Z,11.8
2019-02-20T11:01:20.729Z,11.8
2019-02-20T11:02:11.065Z,11.8
2019-02-20T11:03:01.784Z,11.8
2019-02-20T11:03:51.768Z,11.8
2019-02-20T11:04:42.404Z,11.8
2019-02-20T11:05:30.777Z,11.8
2019-02-20T11:06:21.094Z,11.8
2019-02-20T11:07:11.720Z,11.8
2019-02-20T11:08:01.789Z,11.8
2019-02-20T11:08:54.123Z,11.8
2019-02-20T11:09:42.149Z,11.8
2019-02-20T11:10:33.152Z,11.8
2019-02-20T11:11:21.419Z,11.8
2019-02-20T11:12:10.659Z,11.8
2019-02-20T11:13:02.420Z,11.8
2019-02-20T11:13:51.381Z,11.8
2019-02-20T11:14:44.077Z,11.8
2019-02-20T11:15:32.411Z,11.8
2019-02-20T11:16:22.657Z,11.8
2019-02-20T11:17:12.121Z,11.8
2019-02-20T11:18:02.746Z,11.8
2019-02-20T11:18:51.949Z,11.8
2019-02-20T11:19:42.586Z,11.8
2019-02-20T11:20:32.664Z,11.8
2019-02-20T11:21:23.029Z,11.8
2019-02-20T11:22:12.198Z,11.8
2019-02-20T11:23:02.291Z,11.8
2019-02-20T11:23:52.302Z,11.8
2019-02-20T11:24:42.393Z,11.8
2019-02-20T11:25:34.575Z,11.8
2019-02-20T11:26:27.358Z,11.8
2019-02-20T11:27:12.496Z,11.8
2019-02-20T11:28:02.876Z,11.8
2019-02-20T11:28:52.767Z,11.8
2019-02-20T11:29:43.093Z,11.8
2019-02-20T11:30:33.383Z,11.8
2019-02-20T11:31:22.613Z,11.8
2019-02-20T11:32:14.023Z,11.8
2019-02-20T11:33:05.901Z,11.8
2019-02-20T11:33:54.098Z,11.8
2019-02-20T11:34:43.650Z,11.8
2019-02-20T11:35:32.584Z,11.8
2019-02-20T11:36:23.255Z,11.8
2019-02-20T11:37:13.515Z,11.8
2019-02-20T11:38:03.121Z,11.8
2019-02-20T11:38:53.655Z,11.8
2019-02-20T11:39:47.185Z,11.9
2019-02-20T11:40:34.356Z,11.8
2019-02-20T11:41:23.855Z,11.8
2019-02-20T11:42:14.423Z,11.8
2019-02-20T11:43:02.908Z,11.8
2019-02-20T11:43:53.807Z,11.8
2019-02-20T11:44:43.877Z,11.8
2019-02-20T11:45:34.445Z,11.8